sensor_id;sensor_type;location;lat;lon;timestamp;temperature;humidity
78886;DHT22;68269;52.514;5.722;2023-06-10T00:01:14;21.40;52.90
78886;DHT22;68269;52.514;5.722;2023-06-10T00:03:47;21.30;53.00
78886;DHT22;68269;52.514;5.722;2023-06-10T00:06:16;21.30;53.00
78886;DHT22;68269;52.514;5.722;2023-06-10T00:08:45;21.30;53.00
78886;DHT22;68269;52.514;5.722;2023-06-10T00:11:15;21.20;53.00
78886;DHT22;68269;52.514;5.722;2023-06-10T00:13:44;21.20;53.00
78886;DHT22;68269;52.514;5.722;2023-06-10T00:16:13;21.10;52.90
78886;DHT22;68269;52.514;5.722;2023-06-10T00:18:46;21.10;53.00
78886;DHT22;68269;52.514;5.722;2023-06-10T00:21:17;21.10;53.00
78886;DHT22;68269;52.514;5.722;2023-06-10T00:23:46;21.10;53.00
78886;DHT22;68269;52.514;5.722;2023-06-10T00:26:16;21.10;53.10
78886;DHT22;68269;52.514;5.722;2023-06-10T00:28:46;21.00;53.10
78886;DHT22;68269;52.514;5.722;2023-06-10T00:31:16;21.00;53.20
78886;DHT22;68269;52.514;5.722;2023-06-10T00:33:48;20.90;53.20
78886;DHT22;68269;52.514;5.722;2023-06-10T00:36:17;20.90;53.30
78886;DHT22;68269;52.514;5.722;2023-06-10T00:38:46;20.80;53.30
78886;DHT22;68269;52.514;5.722;2023-06-10T00:41:16;20.80;53.30
78886;DHT22;68269;52.514;5.722;2023-06-10T00:43:45;20.80;53.30
78886;DHT22;68269;52.514;5.722;2023-06-10T00:46:15;20.80;53.30
78886;DHT22;68269;52.514;5.722;2023-06-10T00:48:47;20.70;53.40
78886;DHT22;68269;52.514;5.722;2023-06-10T00:51:17;20.70;53.50
78886;DHT22;68269;52.514;5.722;2023-06-10T00:53:48;20.60;53.50
78886;DHT22;68269;52.514;5.722;2023-06-10T00:56:18;20.60;53.50
78886;DHT22;68269;52.514;5.722;2023-06-10T00:58:48;20.50;53.50
78886;DHT22;68269;52.514;5.722;2023-06-10T01:01:17;20.50;53.50
78886;DHT22;68269;52.514;5.722;2023-06-10T01:03:49;20.50;53.60
78886;DHT22;68269;52.514;5.722;2023-06-10T01:06:34;20.50;53.50
78886;DHT22;68269;52.514;5.722;2023-06-10T01:09:13;20.50;53.60
78886;DHT22;68269;52.514;5.722;2023-06-10T01:11:52;20.50;53.50
78886;DHT22;68269;52.514;5.722;2023-06-10T01:14:23;20.40;53.60
78886;DHT22;68269;52.514;5.722;2023-06-10T01:16:52;20.40;53.60
78886;DHT22;68269;52.514;5.722;2023-06-10T01:19:25;20.30;53.60
78886;DHT22;68269;52.514;5.722;2023-06-10T01:21:59;20.30;53.70
78886;DHT22;68269;52.514;5.722;2023-06-10T01:24:29;20.30;53.70
78886;DHT22;68269;52.514;5.722;2023-06-10T01:27:01;20.30;53.60
78886;DHT22;68269;52.514;5.722;2023-06-10T01:29:37;20.10;53.70
78886;DHT22;68269;52.514;5.722;2023-06-10T01:32:17;20.10;53.60
78886;DHT22;68269;52.514;5.722;2023-06-10T01:34:48;20.10;53.60
78886;DHT22;68269;52.514;5.722;2023-06-10T01:37:23;20.10;53.60
78886;DHT22;68269;52.514;5.722;2023-06-10T01:39:56;20.10;53.60
78886;DHT22;68269;52.514;5.722;2023-06-10T01:42:26;20.10;53.60
78886;DHT22;68269;52.514;5.722;2023-06-10T01:44:57;20.00;53.60
78886;DHT22;68269;52.514;5.722;2023-06-10T01:47:26;20.00;53.60
78886;DHT22;68269;52.514;5.722;2023-06-10T01:49:56;20.00;53.60
78886;DHT22;68269;52.514;5.722;2023-06-10T01:52:28;20.00;53.60
78886;DHT22;68269;52.514;5.722;2023-06-10T01:54:57;20.00;53.70
78886;DHT22;68269;52.514;5.722;2023-06-10T01:57:27;20.00;53.70
78886;DHT22;68269;52.514;5.722;2023-06-10T01:59:56;20.00;53.70
78886;DHT22;68269;52.514;5.722;2023-06-10T02:02:25;19.90;53.70
78886;DHT22;68269;52.514;5.722;2023-06-10T02:04:54;19.90;53.90
78886;DHT22;68269;52.514;5.722;2023-06-10T02:07:24;19.80;53.90
78886;DHT22;68269;52.514;5.722;2023-06-10T02:09:56;19.80;53.90
78886;DHT22;68269;52.514;5.722;2023-06-10T02:12:25;19.80;53.90
78886;DHT22;68269;52.514;5.722;2023-06-10T02:14:54;19.70;53.90
78886;DHT22;68269;52.514;5.722;2023-06-10T02:17:23;19.70;53.90
78886;DHT22;68269;52.514;5.722;2023-06-10T02:19:53;19.70;54.00
78886;DHT22;68269;52.514;5.722;2023-06-10T02:22:24;19.70;54.10
78886;DHT22;68269;52.514;5.722;2023-06-10T02:24:56;19.70;54.10
78886;DHT22;68269;52.514;5.722;2023-06-10T02:27:25;19.70;54.20
78886;DHT22;68269;52.514;5.722;2023-06-10T02:29:55;19.50;54.20
78886;DHT22;68269;52.514;5.722;2023-06-10T02:32:25;19.50;54.30
78886;DHT22;68269;52.514;5.722;2023-06-10T02:34:55;19.50;54.30
78886;DHT22;68269;52.514;5.722;2023-06-10T02:37:27;19.50;54.40
78886;DHT22;68269;52.514;5.722;2023-06-10T02:39:59;19.50;54.40
78886;DHT22;68269;52.514;5.722;2023-06-10T02:42:29;19.40;54.40
78886;DHT22;68269;52.514;5.722;2023-06-10T02:44:59;19.40;54.30
78886;DHT22;68269;52.514;5.722;2023-06-10T02:47:37;19.30;54.40
78886;DHT22;68269;52.514;5.722;2023-06-10T02:50:08;19.20;54.50
78886;DHT22;68269;52.514;5.722;2023-06-10T02:52:47;19.20;54.60
78886;DHT22;68269;52.514;5.722;2023-06-10T02:55:19;19.20;54.60
78886;DHT22;68269;52.514;5.722;2023-06-10T02:57:54;19.20;54.70
78886;DHT22;68269;52.514;5.722;2023-06-10T03:00:24;19.20;54.70
78886;DHT22;68269;52.514;5.722;2023-06-10T03:02:54;19.10;54.70
78886;DHT22;68269;52.514;5.722;2023-06-10T03:05:29;19.10;54.80
78886;DHT22;68269;52.514;5.722;2023-06-10T03:08:01;19.10;54.90
78886;DHT22;68269;52.514;5.722;2023-06-10T03:10:34;19.10;55.00
78886;DHT22;68269;52.514;5.722;2023-06-10T03:13:04;19.00;55.10
78886;DHT22;68269;52.514;5.722;2023-06-10T03:15:33;19.00;55.10
78886;DHT22;68269;52.514;5.722;2023-06-10T03:18:07;19.00;55.10
78886;DHT22;68269;52.514;5.722;2023-06-10T03:20:37;19.00;55.10
78886;DHT22;68269;52.514;5.722;2023-06-10T03:23:08;19.00;55.20
78886;DHT22;68269;52.514;5.722;2023-06-10T03:25:41;18.90;55.30
78886;DHT22;68269;52.514;5.722;2023-06-10T03:28:13;18.90;55.30
78886;DHT22;68269;52.514;5.722;2023-06-10T03:30:43;18.90;55.40
78886;DHT22;68269;52.514;5.722;2023-06-10T03:33:13;18.90;55.50
78886;DHT22;68269;52.514;5.722;2023-06-10T03:35:44;18.80;55.60
78886;DHT22;68269;52.514;5.722;2023-06-10T03:38:14;18.80;55.70
78886;DHT22;68269;52.514;5.722;2023-06-10T03:40:46;18.80;55.70
78886;DHT22;68269;52.514;5.722;2023-06-10T03:43:16;18.80;55.80
78886;DHT22;68269;52.514;5.722;2023-06-10T03:45:47;18.70;55.80
78886;DHT22;68269;52.514;5.722;2023-06-10T03:48:16;18.70;55.80
78886;DHT22;68269;52.514;5.722;2023-06-10T03:50:49;18.70;55.90
78886;DHT22;68269;52.514;5.722;2023-06-10T03:53:20;18.70;55.80
78886;DHT22;68269;52.514;5.722;2023-06-10T03:55:52;18.60;55.90
78886;DHT22;68269;52.514;5.722;2023-06-10T03:58:25;18.70;56.00
78886;DHT22;68269;52.514;5.722;2023-06-10T04:00:54;18.70;56.00
78886;DHT22;68269;52.514;5.722;2023-06-10T04:03:32;18.60;56.10
78886;DHT22;68269;52.514;5.722;2023-06-10T04:06:01;18.70;56.20
78886;DHT22;68269;52.514;5.722;2023-06-10T04:08:31;18.70;56.20
78886;DHT22;68269;52.514;5.722;2023-06-10T04:11:03;18.70;56.30
78886;DHT22;68269;52.514;5.722;2023-06-10T04:13:32;18.70;56.30
78886;DHT22;68269;52.514;5.722;2023-06-10T04:16:02;18.60;56.40
78886;DHT22;68269;52.514;5.722;2023-06-10T04:18:31;18.60;56.50
78886;DHT22;68269;52.514;5.722;2023-06-10T04:21:05;18.60;56.50
78886;DHT22;68269;52.514;5.722;2023-06-10T04:23:35;18.60;56.60
78886;DHT22;68269;52.514;5.722;2023-06-10T04:26:07;18.70;56.60
78886;DHT22;68269;52.514;5.722;2023-06-10T04:28:38;18.60;56.70
78886;DHT22;68269;52.514;5.722;2023-06-10T04:31:07;18.70;56.70
78886;DHT22;68269;52.514;5.722;2023-06-10T04:33:39;18.70;56.80
78886;DHT22;68269;52.514;5.722;2023-06-10T04:36:08;18.70;56.80
78886;DHT22;68269;52.514;5.722;2023-06-10T04:38:38;18.60;56.80
78886;DHT22;68269;52.514;5.722;2023-06-10T04:41:11;18.60;56.90
78886;DHT22;68269;52.514;5.722;2023-06-10T04:43:40;18.60;57.00
78886;DHT22;68269;52.514;5.722;2023-06-10T04:46:10;18.60;57.00
78886;DHT22;68269;52.514;5.722;2023-06-10T04:48:39;18.60;57.10
78886;DHT22;68269;52.514;5.722;2023-06-10T04:51:09;18.60;57.20
78886;DHT22;68269;52.514;5.722;2023-06-10T04:53:38;18.60;57.20
78886;DHT22;68269;52.514;5.722;2023-06-10T04:56:10;18.70;57.20
78886;DHT22;68269;52.514;5.722;2023-06-10T04:58:39;18.70;57.20
78886;DHT22;68269;52.514;5.722;2023-06-10T05:01:08;18.70;57.20
78886;DHT22;68269;52.514;5.722;2023-06-10T05:03:38;18.70;57.20
78886;DHT22;68269;52.514;5.722;2023-06-10T05:06:07;18.70;57.30
78886;DHT22;68269;52.514;5.722;2023-06-10T05:08:36;18.70;57.40
78886;DHT22;68269;52.514;5.722;2023-06-10T05:11:05;18.70;57.40
78886;DHT22;68269;52.514;5.722;2023-06-10T05:13:37;18.80;57.40
78886;DHT22;68269;52.514;5.722;2023-06-10T05:16:07;18.80;57.50
78886;DHT22;68269;52.514;5.722;2023-06-10T05:18:36;18.80;57.50
78886;DHT22;68269;52.514;5.722;2023-06-10T05:21:05;18.90;57.60
78886;DHT22;68269;52.514;5.722;2023-06-10T05:23:35;18.90;57.60
78886;DHT22;68269;52.514;5.722;2023-06-10T05:26:04;18.90;57.60
78886;DHT22;68269;52.514;5.722;2023-06-10T05:28:36;18.90;57.60
78886;DHT22;68269;52.514;5.722;2023-06-10T05:31:06;18.90;57.60
78886;DHT22;68269;52.514;5.722;2023-06-10T05:33:35;19.00;57.60
78886;DHT22;68269;52.514;5.722;2023-06-10T05:36:05;19.00;57.70
78886;DHT22;68269;52.514;5.722;2023-06-10T05:38:34;19.00;57.70
78886;DHT22;68269;52.514;5.722;2023-06-10T05:41:03;19.00;57.70
78886;DHT22;68269;52.514;5.722;2023-06-10T05:43:33;19.00;57.70
78886;DHT22;68269;52.514;5.722;2023-06-10T05:46:05;19.00;57.60
78886;DHT22;68269;52.514;5.722;2023-06-10T05:48:34;19.10;57.70
78886;DHT22;68269;52.514;5.722;2023-06-10T05:51:03;19.10;57.70
78886;DHT22;68269;52.514;5.722;2023-06-10T05:53:33;19.20;57.70
78886;DHT22;68269;52.514;5.722;2023-06-10T05:56:02;19.20;57.60
78886;DHT22;68269;52.514;5.722;2023-06-10T05:58:32;19.20;57.60
78886;DHT22;68269;52.514;5.722;2023-06-10T06:01:01;19.30;57.60
78886;DHT22;68269;52.514;5.722;2023-06-10T06:03:33;19.30;57.60
78886;DHT22;68269;52.514;5.722;2023-06-10T06:06:02;19.40;57.70
78886;DHT22;68269;52.514;5.722;2023-06-10T06:08:32;19.40;57.70
78886;DHT22;68269;52.514;5.722;2023-06-10T06:11:01;19.50;57.70
78886;DHT22;68269;52.514;5.722;2023-06-10T06:13:31;19.50;57.70
78886;DHT22;68269;52.514;5.722;2023-06-10T06:16:00;19.50;57.70
78886;DHT22;68269;52.514;5.722;2023-06-10T06:18:32;19.60;57.70
78886;DHT22;68269;52.514;5.722;2023-06-10T06:21:01;19.60;57.70
78886;DHT22;68269;52.514;5.722;2023-06-10T06:23:30;19.70;57.70
78886;DHT22;68269;52.514;5.722;2023-06-10T06:25:59;19.70;57.70
78886;DHT22;68269;52.514;5.722;2023-06-10T06:28:29;19.70;57.70
78886;DHT22;68269;52.514;5.722;2023-06-10T06:30:58;19.80;57.60
78886;DHT22;68269;52.514;5.722;2023-06-10T06:33:27;19.90;57.60
78886;DHT22;68269;52.514;5.722;2023-06-10T06:35:59;19.90;57.60
78886;DHT22;68269;52.514;5.722;2023-06-10T06:38:29;20.00;57.70
78886;DHT22;68269;52.514;5.722;2023-06-10T06:40:59;20.00;57.50
78886;DHT22;68269;52.514;5.722;2023-06-10T06:43:30;20.00;57.50
78886;DHT22;68269;52.514;5.722;2023-06-10T06:46:18;20.10;57.50
78886;DHT22;68269;52.514;5.722;2023-06-10T06:48:48;20.10;57.40
78886;DHT22;68269;52.514;5.722;2023-06-10T06:51:20;20.20;57.40
78886;DHT22;68269;52.514;5.722;2023-06-10T06:53:49;20.30;57.50
78886;DHT22;68269;52.514;5.722;2023-06-10T06:56:23;20.30;57.40
78886;DHT22;68269;52.514;5.722;2023-06-10T06:58:53;20.40;57.40
78886;DHT22;68269;52.514;5.722;2023-06-10T07:01:22;20.50;57.40
78886;DHT22;68269;52.514;5.722;2023-06-10T07:03:51;20.50;57.20
78886;DHT22;68269;52.514;5.722;2023-06-10T07:06:23;20.60;57.20
78886;DHT22;68269;52.514;5.722;2023-06-10T07:08:53;20.60;57.10
78886;DHT22;68269;52.514;5.722;2023-06-10T07:11:22;20.70;57.00
78886;DHT22;68269;52.514;5.722;2023-06-10T07:13:52;20.80;57.00
78886;DHT22;68269;52.514;5.722;2023-06-10T07:16:22;20.90;56.90
78886;DHT22;68269;52.514;5.722;2023-06-10T07:18:52;21.00;56.80
78886;DHT22;68269;52.514;5.722;2023-06-10T07:21:24;21.10;56.80
78886;DHT22;68269;52.514;5.722;2023-06-10T07:23:54;21.10;56.70
78886;DHT22;68269;52.514;5.722;2023-06-10T07:26:24;21.30;56.60
78886;DHT22;68269;52.514;5.722;2023-06-10T07:28:53;21.30;56.60
78886;DHT22;68269;52.514;5.722;2023-06-10T07:31:23;21.40;56.60
78886;DHT22;68269;52.514;5.722;2023-06-10T07:33:52;21.50;56.50
78886;DHT22;68269;52.514;5.722;2023-06-10T07:36:24;21.50;56.40
78886;DHT22;68269;52.514;5.722;2023-06-10T07:38:55;21.50;56.40
78886;DHT22;68269;52.514;5.722;2023-06-10T07:41:25;21.60;56.40
78886;DHT22;68269;52.514;5.722;2023-06-10T07:43:54;21.70;56.40
78886;DHT22;68269;52.514;5.722;2023-06-10T07:46:24;21.80;56.40
78886;DHT22;68269;52.514;5.722;2023-06-10T07:48:54;21.90;56.30
78886;DHT22;68269;52.514;5.722;2023-06-10T07:51:25;22.00;56.20
78886;DHT22;68269;52.514;5.722;2023-06-10T07:53:55;22.10;56.10
78886;DHT22;68269;52.514;5.722;2023-06-10T07:56:24;22.20;56.10
78886;DHT22;68269;52.514;5.722;2023-06-10T07:58:53;22.20;56.10
78886;DHT22;68269;52.514;5.722;2023-06-10T08:01:23;22.20;56.00
78886;DHT22;68269;52.514;5.722;2023-06-10T08:03:52;22.30;56.00
78886;DHT22;68269;52.514;5.722;2023-06-10T08:06:22;22.30;55.90
78886;DHT22;68269;52.514;5.722;2023-06-10T08:08:53;22.50;55.80
78886;DHT22;68269;52.514;5.722;2023-06-10T08:11:23;22.50;55.70
78886;DHT22;68269;52.514;5.722;2023-06-10T08:13:54;22.60;55.80
78886;DHT22;68269;52.514;5.722;2023-06-10T08:16:23;22.70;55.70
78886;DHT22;68269;52.514;5.722;2023-06-10T08:18:52;22.70;55.60
78886;DHT22;68269;52.514;5.722;2023-06-10T08:21:22;22.80;55.50
78886;DHT22;68269;52.514;5.722;2023-06-10T08:23:55;22.90;55.40
78886;DHT22;68269;52.514;5.722;2023-06-10T08:26:24;22.90;55.40
78886;DHT22;68269;52.514;5.722;2023-06-10T08:28:53;23.00;55.40
78886;DHT22;68269;52.514;5.722;2023-06-10T08:31:23;23.10;55.20
78886;DHT22;68269;52.514;5.722;2023-06-10T08:33:52;23.20;55.20
78886;DHT22;68269;52.514;5.722;2023-06-10T08:36:21;23.30;55.00
78886;DHT22;68269;52.514;5.722;2023-06-10T08:38:51;23.40;55.00
78886;DHT22;68269;52.514;5.722;2023-06-10T08:41:25;23.50;55.00
78886;DHT22;68269;52.514;5.722;2023-06-10T08:44:03;23.60;54.90
78886;DHT22;68269;52.514;5.722;2023-06-10T08:46:36;23.60;54.80
78886;DHT22;68269;52.514;5.722;2023-06-10T08:49:06;23.70;54.80
78886;DHT22;68269;52.514;5.722;2023-06-10T08:51:36;23.80;54.70
78886;DHT22;68269;52.514;5.722;2023-06-10T08:54:15;23.90;54.60
78886;DHT22;68269;52.514;5.722;2023-06-10T08:56:50;24.00;54.50
78886;DHT22;68269;52.514;5.722;2023-06-10T08:59:20;24.00;54.30
78886;DHT22;68269;52.514;5.722;2023-06-10T09:01:50;24.10;54.20
78886;DHT22;68269;52.514;5.722;2023-06-10T09:04:20;24.20;54.10
78886;DHT22;68269;52.514;5.722;2023-06-10T09:06:49;24.20;53.90
78886;DHT22;68269;52.514;5.722;2023-06-10T09:09:19;24.40;53.80
78886;DHT22;68269;52.514;5.722;2023-06-10T09:11:51;24.40;53.70
78886;DHT22;68269;52.514;5.722;2023-06-10T09:14:20;24.50;53.70
78886;DHT22;68269;52.514;5.722;2023-06-10T09:16:50;24.60;53.70
78886;DHT22;68269;52.514;5.722;2023-06-10T09:19:23;24.70;53.60
78886;DHT22;68269;52.514;5.722;2023-06-10T09:21:53;24.80;53.40
78886;DHT22;68269;52.514;5.722;2023-06-10T09:24:22;24.90;53.20
78886;DHT22;68269;52.514;5.722;2023-06-10T09:27:02;25.00;53.10
78886;DHT22;68269;52.514;5.722;2023-06-10T09:29:35;25.00;53.00
78886;DHT22;68269;52.514;5.722;2023-06-10T09:32:14;25.00;53.10
78886;DHT22;68269;52.514;5.722;2023-06-10T09:34:43;25.00;53.00
78886;DHT22;68269;52.514;5.722;2023-06-10T09:37:19;25.00;53.00
78886;DHT22;68269;52.514;5.722;2023-06-10T09:40:04;25.00;52.80
78886;DHT22;68269;52.514;5.722;2023-06-10T09:42:38;25.10;52.70
78886;DHT22;68269;52.514;5.722;2023-06-10T09:45:08;25.30;52.50
78886;DHT22;68269;52.514;5.722;2023-06-10T09:47:37;25.40;52.50
78886;DHT22;68269;52.514;5.722;2023-06-10T09:50:08;25.50;52.40
78886;DHT22;68269;52.514;5.722;2023-06-10T09:52:38;25.60;52.30
78886;DHT22;68269;52.514;5.722;2023-06-10T09:55:09;25.70;52.30
78886;DHT22;68269;52.514;5.722;2023-06-10T09:57:41;25.80;52.10
78886;DHT22;68269;52.514;5.722;2023-06-10T10:00:15;26.00;51.90
78886;DHT22;68269;52.514;5.722;2023-06-10T10:02:46;26.00;51.70
78886;DHT22;68269;52.514;5.722;2023-06-10T10:05:17;26.10;51.50
78886;DHT22;68269;52.514;5.722;2023-06-10T10:07:47;26.20;51.50
78886;DHT22;68269;52.514;5.722;2023-06-10T10:10:18;26.40;51.50
78886;DHT22;68269;52.514;5.722;2023-06-10T10:12:52;26.40;51.40
78886;DHT22;68269;52.514;5.722;2023-06-10T10:15:24;26.50;51.10
78886;DHT22;68269;52.514;5.722;2023-06-10T10:18:00;26.50;51.00
78886;DHT22;68269;52.514;5.722;2023-06-10T10:20:32;26.60;51.00
78886;DHT22;68269;52.514;5.722;2023-06-10T10:23:04;26.70;50.90
78886;DHT22;68269;52.514;5.722;2023-06-10T10:25:37;26.80;50.90
78886;DHT22;68269;52.514;5.722;2023-06-10T10:28:10;26.90;51.00
78886;DHT22;68269;52.514;5.722;2023-06-10T10:30:42;27.00;50.80
78886;DHT22;68269;52.514;5.722;2023-06-10T10:33:16;27.10;50.70
78886;DHT22;68269;52.514;5.722;2023-06-10T10:35:46;27.20;50.60
78886;DHT22;68269;52.514;5.722;2023-06-10T10:38:15;27.30;50.50
78886;DHT22;68269;52.514;5.722;2023-06-10T10:40:45;27.40;50.50
78886;DHT22;68269;52.514;5.722;2023-06-10T10:43:18;27.50;50.30
78886;DHT22;68269;52.514;5.722;2023-06-10T10:45:58;27.50;50.20
78886;DHT22;68269;52.514;5.722;2023-06-10T10:48:36;27.70;50.10
78886;DHT22;68269;52.514;5.722;2023-06-10T10:51:07;27.70;50.00
78886;DHT22;68269;52.514;5.722;2023-06-10T10:53:37;27.70;49.90
78886;DHT22;68269;52.514;5.722;2023-06-10T10:56:13;27.80;49.90
78886;DHT22;68269;52.514;5.722;2023-06-10T10:59:03;27.90;49.70
78886;DHT22;68269;52.514;5.722;2023-06-10T11:01:40;28.00;49.50
78886;DHT22;68269;52.514;5.722;2023-06-10T11:04:12;28.10;49.40
78886;DHT22;68269;52.514;5.722;2023-06-10T11:06:52;28.10;49.40
78886;DHT22;68269;52.514;5.722;2023-06-10T11:09:28;28.10;49.50
78886;DHT22;68269;52.514;5.722;2023-06-10T11:11:58;28.30;49.30
78886;DHT22;68269;52.514;5.722;2023-06-10T11:14:30;28.30;49.20
78886;DHT22;68269;52.514;5.722;2023-06-10T11:17:01;28.50;49.10
78886;DHT22;68269;52.514;5.722;2023-06-10T11:19:33;28.50;49.00
78886;DHT22;68269;52.514;5.722;2023-06-10T11:22:07;28.60;49.00
78886;DHT22;68269;52.514;5.722;2023-06-10T11:24:37;28.60;48.90
78886;DHT22;68269;52.514;5.722;2023-06-10T11:27:17;28.70;48.80
78886;DHT22;68269;52.514;5.722;2023-06-10T11:30:19;28.80;48.60
78886;DHT22;68269;52.514;5.722;2023-06-10T11:32:51;28.90;48.50
78886;DHT22;68269;52.514;5.722;2023-06-10T11:35:23;29.00;48.30
78886;DHT22;68269;52.514;5.722;2023-06-10T11:37:54;29.10;48.10
78886;DHT22;68269;52.514;5.722;2023-06-10T11:40:23;29.20;48.00
78886;DHT22;68269;52.514;5.722;2023-06-10T11:42:53;29.30;48.00
78886;DHT22;68269;52.514;5.722;2023-06-10T11:45:25;29.40;47.90
78886;DHT22;68269;52.514;5.722;2023-06-10T11:47:57;29.50;47.60
78886;DHT22;68269;52.514;5.722;2023-06-10T11:50:30;29.60;47.30
78886;DHT22;68269;52.514;5.722;2023-06-10T11:53:00;29.70;47.40
78886;DHT22;68269;52.514;5.722;2023-06-10T11:55:41;29.70;47.40
78886;DHT22;68269;52.514;5.722;2023-06-10T11:58:14;29.70;47.30
78886;DHT22;68269;52.514;5.722;2023-06-10T12:00:48;29.80;47.20
78886;DHT22;68269;52.514;5.722;2023-06-10T12:03:19;29.90;47.00
78886;DHT22;68269;52.514;5.722;2023-06-10T12:05:56;30.00;46.90
78886;DHT22;68269;52.514;5.722;2023-06-10T12:08:27;30.00;46.70
78886;DHT22;68269;52.514;5.722;2023-06-10T12:10:57;30.10;46.60
78886;DHT22;68269;52.514;5.722;2023-06-10T12:13:27;30.30;46.40
78886;DHT22;68269;52.514;5.722;2023-06-10T12:16:09;30.30;46.20
78886;DHT22;68269;52.514;5.722;2023-06-10T12:18:38;30.40;46.00
78886;DHT22;68269;52.514;5.722;2023-06-10T12:21:16;30.50;46.00
78886;DHT22;68269;52.514;5.722;2023-06-10T12:26:41;30.50;46.20
78886;DHT22;68269;52.514;5.722;2023-06-10T12:29:21;30.60;46.10
78886;DHT22;68269;52.514;5.722;2023-06-10T12:31:59;30.60;46.00
78886;DHT22;68269;52.514;5.722;2023-06-10T12:34:30;30.80;45.70
78886;DHT22;68269;52.514;5.722;2023-06-10T12:37:00;30.90;45.50
78886;DHT22;68269;52.514;5.722;2023-06-10T12:39:30;30.90;45.20
78886;DHT22;68269;52.514;5.722;2023-06-10T12:42:00;31.00;45.00
78886;DHT22;68269;52.514;5.722;2023-06-10T12:44:32;31.00;44.90
78886;DHT22;68269;52.514;5.722;2023-06-10T12:47:10;31.00;44.80
78886;DHT22;68269;52.514;5.722;2023-06-10T12:49:41;31.00;44.70
78886;DHT22;68269;52.514;5.722;2023-06-10T12:52:10;31.10;44.80
78886;DHT22;68269;52.514;5.722;2023-06-10T12:54:39;31.20;44.70
78886;DHT22;68269;52.514;5.722;2023-06-10T12:57:09;31.20;44.70
78886;DHT22;68269;52.514;5.722;2023-06-10T12:59:39;31.30;44.50
78886;DHT22;68269;52.514;5.722;2023-06-10T13:02:13;31.30;44.40
78886;DHT22;68269;52.514;5.722;2023-06-10T13:04:43;31.40;44.60
78886;DHT22;68269;52.514;5.722;2023-06-10T13:07:13;31.30;44.60
78886;DHT22;68269;52.514;5.722;2023-06-10T13:09:42;31.40;44.50
78886;DHT22;68269;52.514;5.722;2023-06-10T13:12:15;31.50;44.20
78886;DHT22;68269;52.514;5.722;2023-06-10T13:14:45;31.50;44.00
78886;DHT22;68269;52.514;5.722;2023-06-10T13:17:17;31.50;43.70
78886;DHT22;68269;52.514;5.722;2023-06-10T13:19:46;31.60;43.50
78886;DHT22;68269;52.514;5.722;2023-06-10T13:22:16;31.60;43.50
78886;DHT22;68269;52.514;5.722;2023-06-10T13:24:46;31.60;43.40
78886;DHT22;68269;52.514;5.722;2023-06-10T13:27:15;31.60;43.20
78886;DHT22;68269;52.514;5.722;2023-06-10T13:29:44;31.60;43.20
78886;DHT22;68269;52.514;5.722;2023-06-10T13:32:16;31.60;43.20
78886;DHT22;68269;52.514;5.722;2023-06-10T13:34:46;31.60;43.30
78886;DHT22;68269;52.514;5.722;2023-06-10T13:37:16;31.60;43.20
78886;DHT22;68269;52.514;5.722;2023-06-10T13:39:46;31.60;43.10
78886;DHT22;68269;52.514;5.722;2023-06-10T13:42:17;31.70;43.00
78886;DHT22;68269;52.514;5.722;2023-06-10T13:44:47;31.70;42.70
78886;DHT22;68269;52.514;5.722;2023-06-10T13:47:20;31.80;42.50
78886;DHT22;68269;52.514;5.722;2023-06-10T13:49:50;31.90;42.20
78886;DHT22;68269;52.514;5.722;2023-06-10T13:52:19;31.90;41.90
78886;DHT22;68269;52.514;5.722;2023-06-10T13:54:49;31.90;41.60
78886;DHT22;68269;52.514;5.722;2023-06-10T13:57:18;31.90;41.40
78886;DHT22;68269;52.514;5.722;2023-06-10T13:59:47;32.00;41.20
78886;DHT22;68269;52.514;5.722;2023-06-10T14:02:19;32.00;41.20
78886;DHT22;68269;52.514;5.722;2023-06-10T14:04:49;32.00;41.20
78886;DHT22;68269;52.514;5.722;2023-06-10T14:07:18;32.00;41.30
78886;DHT22;68269;52.514;5.722;2023-06-10T14:09:47;32.10;41.10
78886;DHT22;68269;52.514;5.722;2023-06-10T14:12:17;32.20;40.90
78886;DHT22;68269;52.514;5.722;2023-06-10T14:14:46;32.20;40.70
78886;DHT22;68269;52.514;5.722;2023-06-10T14:17:15;32.20;40.60
78886;DHT22;68269;52.514;5.722;2023-06-10T14:19:47;32.20;40.50
78886;DHT22;68269;52.514;5.722;2023-06-10T14:22:17;32.20;40.50
78886;DHT22;68269;52.514;5.722;2023-06-10T14:24:46;32.30;40.50
78886;DHT22;68269;52.514;5.722;2023-06-10T14:27:16;32.40;40.40
78886;DHT22;68269;52.514;5.722;2023-06-10T14:29:46;32.40;40.40
78886;DHT22;68269;52.514;5.722;2023-06-10T14:32:15;32.40;40.10
78886;DHT22;68269;52.514;5.722;2023-06-10T14:34:47;32.40;39.90
78886;DHT22;68269;52.514;5.722;2023-06-10T14:37:16;32.40;40.00
78886;DHT22;68269;52.514;5.722;2023-06-10T14:39:46;32.40;39.90
78886;DHT22;68269;52.514;5.722;2023-06-10T14:42:15;32.40;39.70
78886;DHT22;68269;52.514;5.722;2023-06-10T14:44:44;32.40;39.50
78886;DHT22;68269;52.514;5.722;2023-06-10T14:47:13;32.20;39.60
78886;DHT22;68269;52.514;5.722;2023-06-10T14:49:43;32.20;39.60
78886;DHT22;68269;52.514;5.722;2023-06-10T14:52:15;32.20;39.60
78886;DHT22;68269;52.514;5.722;2023-06-10T14:54:44;32.20;39.40
78886;DHT22;68269;52.514;5.722;2023-06-10T14:57:14;32.20;39.50
78886;DHT22;68269;52.514;5.722;2023-06-10T14:59:43;32.20;39.50
78886;DHT22;68269;52.514;5.722;2023-06-10T15:02:12;32.40;39.50
78886;DHT22;68269;52.514;5.722;2023-06-10T15:04:41;32.40;39.40
78886;DHT22;68269;52.514;5.722;2023-06-10T15:07:11;32.50;39.30
78886;DHT22;68269;52.514;5.722;2023-06-10T15:09:44;32.50;39.30
78886;DHT22;68269;52.514;5.722;2023-06-10T15:12:13;32.50;39.30
78886;DHT22;68269;52.514;5.722;2023-06-10T15:14:42;32.50;39.20
78886;DHT22;68269;52.514;5.722;2023-06-10T15:17:12;32.50;39.20
78886;DHT22;68269;52.514;5.722;2023-06-10T15:19:41;32.50;39.20
78886;DHT22;68269;52.514;5.722;2023-06-10T15:22:10;32.50;39.10
78886;DHT22;68269;52.514;5.722;2023-06-10T15:24:43;32.50;38.90
78886;DHT22;68269;52.514;5.722;2023-06-10T15:27:12;32.40;38.90
78886;DHT22;68269;52.514;5.722;2023-06-10T15:29:41;32.40;38.90
78886;DHT22;68269;52.514;5.722;2023-06-10T15:32:11;32.40;38.90
78886;DHT22;68269;52.514;5.722;2023-06-10T15:34:40;32.30;38.70
78886;DHT22;68269;52.514;5.722;2023-06-10T15:37:09;32.30;38.80
78886;DHT22;68269;52.514;5.722;2023-06-10T15:39:39;32.30;38.70
78886;DHT22;68269;52.514;5.722;2023-06-10T15:42:10;32.30;38.60
78886;DHT22;68269;52.514;5.722;2023-06-10T15:44:40;32.20;38.60
78886;DHT22;68269;52.514;5.722;2023-06-10T15:47:09;32.20;38.70
78886;DHT22;68269;52.514;5.722;2023-06-10T15:49:38;32.20;39.00
78886;DHT22;68269;52.514;5.722;2023-06-10T15:52:08;32.20;38.90
78886;DHT22;68269;52.514;5.722;2023-06-10T15:54:37;32.10;38.70
78886;DHT22;68269;52.514;5.722;2023-06-10T15:57:06;32.00;38.70